createdAt,value
2022-09-03T00:00:06.350Z,96.50
2022-09-03T00:02:45.577Z,97.10
2022-09-03T00:05:27.018Z,97.20
2022-09-03T00:08:06.277Z,97.20
2022-09-03T00:10:52.152Z,97.10
2022-09-03T00:13:31.018Z,97.20
2022-09-03T00:15:59.909Z,97.30
2022-09-03T00:18:35.010Z,97.40
2022-09-03T00:21:08.682Z,97.50
2022-09-03T00:23:40.493Z,97.60
2022-09-03T00:26:13.636Z,97.70
2022-09-03T00:28:54.714Z,97.70
2022-09-03T00:31:38.957Z,97.60
2022-09-03T00:34:50.953Z,97.90
2022-09-03T00:37:18.349Z,97.70
2022-09-03T00:39:46.248Z,97.70
2022-09-03T00:42:52.005Z,98.00
2022-09-03T00:45:59.038Z,98.00
2022-09-03T00:48:30.924Z,97.70
2022-09-03T00:51:13.780Z,97.20
2022-09-03T00:53:51.326Z,97.20
2022-09-03T00:56:37.538Z,97.20
2022-09-03T00:59:29.404Z,97.50
2022-09-03T01:02:11.668Z,97.70
2022-09-03T01:04:56.747Z,98.00
2022-09-03T01:07:42.975Z,98.50
2022-09-03T01:10:10.361Z,98.30
2022-09-03T01:12:59.855Z,98.40
2022-09-03T01:15:27.322Z,98.50
2022-09-03T01:18:13.599Z,98.50
2022-09-03T01:20:43.852Z,98.90
2022-09-03T01:23:14.271Z,98.20
2022-09-03T01:25:47.627Z,98.00
2022-09-03T01:28:22.051Z,98.30
2022-09-03T01:31:05.564Z,98.40
2022-09-03T01:33:44.298Z,98.30
2022-09-03T01:36:35.559Z,98.40
2022-09-03T01:39:06.469Z,98.10
2022-09-03T01:41:55.439Z,97.90
2022-09-03T01:44:48.277Z,97.70
2022-09-03T01:47:50.409Z,97.80
2022-09-03T01:50:57.789Z,98.10
2022-09-03T01:53:55.990Z,98.40
2022-09-03T01:57:12.807Z,98.60
2022-09-03T02:00:09.137Z,98.80
2022-09-03T02:02:47.826Z,99.00
2022-09-03T02:05:18.713Z,99.10
2022-09-03T02:07:58.061Z,99.40
2022-09-03T02:10:39.351Z,99.50
2022-09-03T02:13:20.980Z,99.70
2022-09-03T02:15:50.654Z,99.90
2022-09-03T02:18:22.362Z,99.90
2022-09-03T02:20:52.985Z,99.90
2022-09-03T02:23:24.671Z,99.90
2022-09-03T02:26:01.316Z,99.90
2022-09-03T02:28:30.917Z,99.90
2022-09-03T02:30:58.767Z,99.90
2022-09-03T02:33:26.372Z,99.90
2022-09-03T02:35:54.659Z,99.90
2022-09-03T02:38:28.371Z,99.90
2022-09-03T02:40:55.940Z,99.90
2022-09-03T02:43:48.081Z,99.90
2022-09-03T02:46:22.361Z,99.90
2022-09-03T02:48:49.846Z,99.90
2022-09-03T02:51:17.325Z,99.90
2022-09-03T02:53:45.008Z,99.90
2022-09-03T02:56:12.790Z,99.90
2022-09-03T02:58:40.208Z,99.90
2022-09-03T03:01:08.042Z,99.90
2022-09-03T03:03:35.531Z,99.90
2022-09-03T03:06:05.693Z,99.90
2022-09-03T03:08:34.767Z,99.90
2022-09-03T03:11:02.240Z,99.90
2022-09-03T03:13:30.797Z,99.90
2022-09-03T03:16:00.525Z,99.90
2022-09-03T03:18:28.309Z,99.90
2022-09-03T03:20:56.033Z,99.90
2022-09-03T03:23:23.554Z,99.90
2022-09-03T03:25:50.990Z,99.90
2022-09-03T03:28:20.303Z,99.90
2022-09-03T03:30:49.034Z,99.90
2022-09-03T03:33:16.533Z,99.90
2022-09-03T03:35:43.924Z,99.90
2022-09-03T03:38:11.480Z,99.90
2022-09-03T03:40:39.398Z,99.90
2022-09-03T03:43:06.888Z,99.90
2022-09-03T03:45:34.281Z,99.90
2022-09-03T03:48:01.743Z,99.90
2022-09-03T03:50:29.128Z,99.90
2022-09-03T03:53:00.717Z,99.90
2022-09-03T03:55:29.167Z,99.90
2022-09-03T03:58:02.973Z,99.90
2022-09-03T04:00:30.352Z,99.90
2022-09-03T04:02:58.988Z,99.90
2022-09-03T04:05:26.375Z,99.90
2022-09-03T04:07:54.189Z,99.90
2022-09-03T04:10:21.736Z,99.90
2022-09-03T04:12:49.101Z,99.90
2022-09-03T04:15:17.160Z,99.90
2022-09-03T04:17:44.560Z,99.90
2022-09-03T04:20:11.936Z,99.90
2022-09-03T04:22:39.320Z,99.90
2022-09-03T04:25:07.000Z,99.90
2022-09-03T04:27:34.425Z,99.90
2022-09-03T04:30:01.918Z,99.90
2022-09-03T04:32:49.013Z,99.90
2022-09-03T04:35:23.917Z,99.90
2022-09-03T04:37:51.878Z,99.90
2022-09-03T04:40:19.248Z,99.90
2022-09-03T04:42:46.612Z,99.90
2022-09-03T04:45:18.591Z,99.90
2022-09-03T04:48:04.956Z,99.90
2022-09-03T04:50:35.568Z,99.90
2022-09-03T04:53:08.016Z,99.90
2022-09-03T04:55:37.270Z,99.90
2022-09-03T04:58:07.749Z,99.90
2022-09-03T05:00:36.909Z,99.90
2022-09-03T05:03:05.200Z,99.90
2022-09-03T05:05:36.156Z,99.90
2022-09-03T05:08:04.235Z,99.90
2022-09-03T05:10:32.051Z,99.90
2022-09-03T05:13:04.943Z,99.90
2022-09-03T05:15:33.259Z,99.90
2022-09-03T05:18:04.784Z,99.90
2022-09-03T05:20:32.836Z,99.90
2022-09-03T05:23:04.091Z,99.90
2022-09-03T05:25:34.486Z,99.90
2022-09-03T05:28:02.015Z,99.90
2022-09-03T05:30:29.988Z,99.90
2022-09-03T05:32:57.752Z,99.90
2022-09-03T05:35:26.176Z,99.90
2022-09-03T05:37:57.600Z,99.90
2022-09-03T05:40:25.015Z,99.90
2022-09-03T05:42:57.808Z,99.90
2022-09-03T05:45:25.288Z,99.90
2022-09-03T05:47:52.678Z,99.90
2022-09-03T05:50:20.053Z,99.90
2022-09-03T05:52:47.921Z,99.90
2022-09-03T05:55:15.380Z,99.90
2022-09-03T05:57:43.491Z,99.90
2022-09-03T06:00:11.276Z,99.90
2022-09-03T06:02:40.009Z,99.90
2022-09-03T06:05:08.079Z,99.90
2022-09-03T06:07:35.401Z,99.90
2022-09-03T06:10:04.814Z,99.90
2022-09-03T06:12:32.186Z,99.90
2022-09-03T06:14:59.525Z,99.90
2022-09-03T06:17:27.069Z,99.90
2022-09-03T06:19:54.325Z,99.90
2022-09-03T06:22:24.957Z,99.90
2022-09-03T06:24:54.545Z,99.90
2022-09-03T06:27:21.924Z,99.90
2022-09-03T06:29:50.001Z,99.90
2022-09-03T06:32:17.318Z,99.90
2022-09-03T06:34:44.873Z,99.90
2022-09-03T06:37:12.329Z,99.90
2022-09-03T06:39:39.654Z,99.90
2022-09-03T06:42:07.400Z,99.90
2022-09-03T06:44:36.886Z,99.90
2022-09-03T06:47:04.353Z,99.90
2022-09-03T06:49:31.649Z,99.90
2022-09-03T06:51:59.487Z,99.90
2022-09-03T06:54:26.887Z,99.90
2022-09-03T06:56:54.193Z,99.90
2022-09-03T06:59:21.613Z,99.90
2022-09-03T07:01:49.237Z,99.90
2022-09-03T07:04:19.259Z,99.90
2022-09-03T07:06:48.045Z,99.90
2022-09-03T07:09:18.173Z,99.90
2022-09-03T07:11:49.403Z,99.90
2022-09-03T07:14:18.856Z,99.90
2022-09-03T07:16:47.344Z,99.90
2022-09-03T07:19:15.292Z,99.90
2022-09-03T07:21:48.800Z,99.90
2022-09-03T07:24:18.199Z,99.90
2022-09-03T07:26:47.118Z,99.90
2022-09-03T07:29:16.492Z,99.90
2022-09-03T07:31:44.391Z,99.90
2022-09-03T07:34:13.592Z,99.90
2022-09-03T07:36:48.704Z,99.90
2022-09-03T07:39:18.215Z,99.80
2022-09-03T07:41:46.751Z,99.30
2022-09-03T07:44:16.327Z,99.40
2022-09-03T07:46:45.561Z,99.60
2022-09-03T07:49:13.211Z,99.00
2022-09-03T07:51:40.872Z,98.90
2022-09-03T07:54:10.844Z,98.70
2022-09-03T07:56:40.186Z,98.40
2022-09-03T07:59:08.353Z,98.90
2022-09-03T08:01:39.250Z,98.70
2022-09-03T08:04:09.873Z,98.00
2022-09-03T08:06:38.635Z,97.90
2022-09-03T08:09:09.212Z,97.70
2022-09-03T08:11:39.238Z,97.50
2022-09-03T08:14:09.366Z,96.80
2022-09-03T08:16:39.607Z,97.00
2022-09-03T08:19:07.624Z,96.90
2022-09-03T08:21:36.385Z,96.20
2022-09-03T08:24:04.309Z,96.10
2022-09-03T08:26:34.678Z,96.10
2022-09-03T08:29:02.941Z,95.50
2022-09-03T08:31:31.005Z,95.50
2022-09-03T08:34:06.638Z,95.20
2022-09-03T08:36:37.029Z,94.90
2022-09-03T08:39:11.084Z,95.20
2022-09-03T08:42:01.046Z,94.70
2022-09-03T08:44:51.726Z,94.70
2022-09-03T08:47:25.692Z,94.40
2022-09-03T08:50:21.880Z,94.20
2022-09-03T08:53:02.888Z,92.80
2022-09-03T08:55:50.980Z,93.30
2022-09-03T08:58:25.475Z,93.60
2022-09-03T09:01:07.923Z,93.40
2022-09-03T09:03:53.373Z,93.30
2022-09-03T09:06:24.101Z,92.80
2022-09-03T09:09:03.329Z,92.50
2022-09-03T09:11:33.396Z,92.60
2022-09-03T09:14:19.157Z,92.60
2022-09-03T09:17:32.755Z,92.40
2022-09-03T09:20:30.916Z,93.10
2022-09-03T09:23:09.319Z,93.60
2022-09-03T09:25:48.425Z,93.50
2022-09-03T09:28:30.675Z,93.70
2022-09-03T09:31:03.184Z,94.30
2022-09-03T09:33:32.494Z,94.40
2022-09-03T09:36:06.476Z,94.30
2022-09-03T09:38:38.141Z,94.20
2022-09-03T09:41:10.764Z,94.10
2022-09-03T09:43:39.201Z,94.60
2022-09-03T09:46:20.486Z,93.90
2022-09-03T09:48:51.859Z,94.10
2022-09-03T09:51:19.159Z,94.10
2022-09-03T09:53:47.015Z,94.30
2022-09-03T09:56:25.872Z,93.10
2022-09-03T09:59:10.896Z,93.90
2022-09-03T10:01:40.899Z,93.30
2022-09-03T10:04:11.501Z,93.70
2022-09-03T10:06:55.434Z,93.60
2022-09-03T10:09:41.053Z,93.30
2022-09-03T10:12:19.656Z,93.00
2022-09-03T10:15:08.226Z,92.80
2022-09-03T10:17:55.712Z,92.50
2022-09-03T10:20:28.133Z,92.80
2022-09-03T10:23:03.504Z,93.30
2022-09-03T10:25:40.807Z,93.00
2022-09-03T10:28:13.542Z,92.40
2022-09-03T10:31:07.151Z,92.40
2022-09-03T10:33:39.442Z,92.30
2022-09-03T10:36:26.878Z,92.30
2022-09-03T10:39:05.953Z,92.00
2022-09-03T10:42:06.761Z,91.60
2022-09-03T10:44:45.080Z,91.70
2022-09-03T10:47:29.498Z,89.70
2022-09-03T10:50:23.278Z,87.10
2022-09-03T10:53:22.964Z,88.00
2022-09-03T10:56:12.243Z,88.30
2022-09-03T10:58:45.861Z,89.80
2022-09-03T11:01:22.369Z,89.60
2022-09-03T11:04:19.966Z,89.30
2022-09-03T11:06:55.389Z,90.50
2022-09-03T11:09:31.673Z,90.20
2022-09-03T11:12:12.343Z,90.10
2022-09-03T11:14:50.752Z,90.50
2022-09-03T11:17:29.757Z,90.50
2022-09-03T11:20:14.282Z,89.80
2022-09-03T11:22:44.290Z,88.80
2022-09-03T11:25:15.393Z,89.00
2022-09-03T11:27:42.777Z,88.10
2022-09-03T11:30:14.204Z,88.70
2022-09-03T11:32:41.602Z,86.60
2022-09-03T11:35:37.836Z,85.30
2022-09-03T11:38:06.850Z,85.60
2022-09-03T11:40:57.468Z,86.30
2022-09-03T11:43:24.887Z,86.70
2022-09-03T11:46:13.920Z,87.20
2022-09-03T11:48:48.767Z,87.60
2022-09-03T11:51:24.972Z,87.80
2022-09-03T11:53:59.521Z,86.50
2022-09-03T11:56:27.713Z,84.90
2022-09-03T11:59:14.736Z,85.40
2022-09-03T12:01:48.526Z,86.00
2022-09-03T12:04:18.257Z,85.70
2022-09-03T12:06:45.601Z,84.00
2022-09-03T12:09:13.866Z,84.10
2022-09-03T12:12:08.828Z,84.50
2022-09-03T12:15:14.337Z,85.30
2022-09-03T12:18:12.087Z,83.70
2022-09-03T12:20:41.174Z,83.50
2022-09-03T12:23:11.869Z,84.20
2022-09-03T12:25:49.229Z,84.30
2022-09-03T12:28:25.423Z,84.10
2022-09-03T12:30:53.652Z,84.80
2022-09-03T12:33:23.031Z,85.00
2022-09-03T12:36:01.370Z,85.00
2022-09-03T12:38:40.625Z,85.10
2022-09-03T12:41:34.762Z,84.20
2022-09-03T12:44:04.429Z,83.90
2022-09-03T12:46:34.108Z,83.50
2022-09-03T12:52:05.872Z,84.20
2022-09-03T12:54:37.103Z,84.80
2022-09-03T12:57:05.147Z,85.40
2022-09-03T12:59:36.879Z,85.90
2022-09-03T13:02:26.293Z,87.00
2022-09-03T13:04:54.396Z,86.60
2022-09-03T13:07:33.531Z,86.50
2022-09-03T13:10:06.928Z,86.00
2022-09-03T13:12:58.766Z,86.30
2022-09-03T13:15:27.155Z,85.00
2022-09-03T13:18:09.735Z,85.20
2022-09-03T13:20:54.259Z,85.90
2022-09-03T13:23:55.445Z,85.30
2022-09-03T13:26:36.384Z,85.00
2022-09-03T13:29:18.625Z,85.60
2022-09-03T13:32:07.816Z,85.00
2022-09-03T13:34:40.595Z,85.80
2022-09-03T13:37:37.551Z,87.00
2022-09-03T13:40:32.117Z,86.40
2022-09-03T13:43:22.211Z,87.70
2022-09-03T13:45:53.665Z,88.60
2022-09-03T13:49:01.415Z,88.00
2022-09-03T13:52:07.610Z,88.40
2022-09-03T13:54:48.979Z,88.80
2022-09-03T13:57:46.627Z,89.10
2022-09-03T14:00:25.110Z,90.00
2022-09-03T14:03:06.435Z,90.40
2022-09-03T14:05:55.171Z,90.40
2022-09-03T14:08:54.320Z,90.90
2022-09-03T14:11:34.809Z,91.00
2022-09-03T14:14:37.206Z,90.90
2022-09-03T14:17:04.536Z,91.30
2022-09-03T14:19:37.954Z,91.80
2022-09-03T14:22:46.224Z,92.10
2022-09-03T14:25:22.229Z,92.50
2022-09-03T14:27:50.270Z,92.80
2022-09-03T14:30:46.512Z,93.20
2022-09-03T14:33:28.672Z,93.50
2022-09-03T14:36:08.695Z,93.60
2022-09-03T14:39:24.468Z,93.90
2022-09-03T14:42:38.852Z,94.10
2022-09-03T14:45:47.495Z,94.10
2022-09-03T14:48:44.341Z,94.40
2022-09-03T14:51:39.748Z,94.00
2022-09-03T14:54:42.061Z,94.40
2022-09-03T14:58:00.084Z,94.60
2022-09-03T15:00:57.968Z,94.60
2022-09-03T15:03:34.084Z,94.50
2022-09-03T15:06:30.748Z,94.80
2022-09-03T15:09:30.896Z,94.80
2022-09-03T15:12:08.690Z,94.90
2022-09-03T15:14:52.126Z,94.90
2022-09-03T15:17:22.392Z,94.80
2022-09-03T15:20:07.155Z,95.20
2022-09-03T15:22:34.486Z,94.90
2022-09-03T15:25:27.855Z,94.90
2022-09-03T15:28:46.217Z,94.90
2022-09-03T15:31:21.829Z,94.80
2022-09-03T15:34:02.771Z,95.30
2022-09-03T15:36:41.393Z,95.30
2022-09-03T15:39:22.327Z,95.30
2022-09-03T15:42:10.342Z,95.10
2022-09-03T15:44:55.147Z,94.90
2022-09-03T15:47:51.930Z,95.30
2022-09-03T15:50:40.190Z,95.00
2022-09-03T15:53:34.129Z,95.10
2022-09-03T15:56:32.468Z,95.10
2022-09-03T15:59:05.367Z,95.30
2022-09-03T16:02:10.978Z,95.20
2022-09-03T16:04:46.952Z,95.40
2022-09-03T16:07:39.662Z,95.70
2022-09-03T16:10:24.568Z,95.80
2022-09-03T16:13:20.763Z,95.80
2022-09-03T16:16:07.945Z,95.70
2022-09-03T16:18:55.292Z,95.80
2022-09-03T16:21:43.231Z,96.40
2022-09-03T16:24:24.025Z,96.20
2022-09-03T16:27:00.650Z,96.10
2022-09-03T16:29:33.645Z,96.10
2022-09-03T16:32:16.511Z,96.20
2022-09-03T16:34:55.840Z,96.00
2022-09-03T16:37:30.396Z,96.30
2022-09-03T16:40:11.393Z,96.40
2022-09-03T16:42:54.566Z,96.40
2022-09-03T16:45:48.872Z,96.30
2022-09-03T16:48:34.856Z,96.40
2022-09-03T16:51:23.800Z,96.50
2022-09-03T16:54:14.995Z,96.40
2022-09-03T16:57:35.740Z,96.80
2022-09-03T17:00:14.700Z,97.00
2022-09-03T17:03:30.512Z,97.00
2022-09-03T17:06:18.740Z,96.80
2022-09-03T17:09:12.883Z,96.90
2022-09-03T17:11:57.382Z,97.20
2022-09-03T17:14:50.860Z,97.20
2022-09-03T17:17:42.932Z,97.10
2022-09-03T17:20:15.767Z,97.40
2022-09-03T17:22:43.097Z,97.20
2022-09-03T17:25:24.892Z,97.40
2022-09-03T17:28:03.214Z,97.40
2022-09-03T17:30:53.663Z,97.50
2022-09-03T17:33:46.131Z,97.60
2022-09-03T17:36:16.124Z,97.90
2022-09-03T17:38:50.121Z,98.00
2022-09-03T17:41:40.688Z,98.30
2022-09-03T17:44:32.314Z,98.20
2022-09-03T17:47:08.987Z,98.30
2022-09-03T17:49:48.463Z,98.30
2022-09-03T17:52:40.952Z,98.50
2022-09-03T17:55:31.764Z,98.40
2022-09-03T17:58:21.191Z,98.60
2022-09-03T18:01:11.227Z,98.60
2022-09-03T18:03:52.212Z,98.20
2022-09-03T18:06:37.625Z,98.40
2022-09-03T18:09:17.481Z,98.80
2022-09-03T18:12:07.755Z,99.00
2022-09-03T18:15:11.652Z,99.20
2022-09-03T18:18:05.348Z,98.30
2022-09-03T18:21:27.579Z,97.80
2022-09-03T18:24:34.099Z,99.30
2022-09-03T18:27:29.770Z,99.40
2022-09-03T18:30:20.105Z,99.80
2022-09-03T18:33:07.098Z,99.90
2022-09-03T18:35:53.877Z,99.90
2022-09-03T18:38:45.901Z,99.90
2022-09-03T18:41:43.111Z,99.90
2022-09-03T18:44:48.565Z,99.90
2022-09-03T18:51:11.872Z,99.90
2022-09-03T18:54:26.312Z,99.90
2022-09-03T18:57:12.699Z,99.90
2022-09-03T19:00:18.644Z,99.90
2022-09-03T19:03:19.848Z,99.90
2022-09-03T19:06:41.685Z,99.90
2022-09-03T19:09:36.680Z,99.90
2022-09-03T19:12:31.609Z,99.90
2022-09-03T19:15:27.088Z,99.90
2022-09-03T19:18:20.931Z,99.90
2022-09-03T19:21:26.016Z,99.90
2022-09-03T19:24:20.143Z,99.90
2022-09-03T19:27:55.676Z,99.90
2022-09-03T19:31:08.839Z,99.90
2022-09-03T19:34:27.003Z,99.90
2022-09-03T19:37:32.134Z,99.90
2022-09-03T19:40:43.222Z,99.90
2022-09-03T19:43:43.857Z,99.90
2022-09-03T19:46:51.145Z,99.90
2022-09-03T19:50:21.518Z,99.90
2022-09-03T19:53:10.300Z,99.90
2022-09-03T19:56:11.221Z,99.90
2022-09-03T19:59:01.961Z,99.90
2022-09-03T20:01:56.148Z,99.90
2022-09-03T20:04:50.910Z,99.90
2022-09-03T20:07:37.790Z,99.90
2022-09-03T20:10:22.605Z,99.90
2022-09-03T20:13:15.226Z,99.90
2022-09-03T20:15:57.637Z,99.90
2022-09-03T20:18:42.485Z,99.90
2022-09-03T20:21:23.553Z,99.90
2022-09-03T20:23:57.042Z,99.90
2022-09-03T20:26:32.531Z,99.90
2022-09-03T20:29:23.527Z,99.90
2022-09-03T20:32:08.720Z,99.90
2022-09-03T20:34:47.973Z,99.90
2022-09-03T20:37:41.456Z,99.90
2022-09-03T20:40:29.116Z,99.90
2022-09-03T20:43:07.553Z,99.90
2022-09-03T20:45:47.599Z,99.90
2022-09-03T20:48:26.994Z,99.90
2022-09-03T20:51:11.976Z,99.90
2022-09-03T20:53:54.875Z,99.90
2022-09-03T20:56:22.312Z,99.90
2022-09-03T20:58:58.716Z,99.90
2022-09-03T21:01:33.883Z,99.90
2022-09-03T21:04:10.043Z,99.90
2022-09-03T21:07:11.799Z,99.90
2022-09-03T21:09:53.178Z,99.90
2022-09-03T21:13:02.214Z,99.90
2022-09-03T21:16:06.265Z,99.90
2022-09-03T21:18:51.599Z,99.90
2022-09-03T21:21:36.667Z,99.90
2022-09-03T21:24:53.236Z,99.90
2022-09-03T21:27:29.931Z,99.90
2022-09-03T21:30:05.396Z,99.90
2022-09-03T21:33:02.979Z,99.90
2022-09-03T21:35:32.821Z,99.90
2022-09-03T21:38:17.109Z,99.90
2022-09-03T21:41:07.420Z,99.90
2022-09-03T21:43:52.557Z,99.90
2022-09-03T21:46:25.642Z,99.90
2022-09-03T21:48:56.397Z,99.90
2022-09-03T21:51:47.983Z,99.90
2022-09-03T21:54:33.725Z,99.90
2022-09-03T21:57:24.585Z,99.90
2022-09-03T21:59:57.804Z,99.90
2022-09-03T22:02:26.508Z,99.90
2022-09-03T22:04:55.873Z,99.90
2022-09-03T22:07:41.208Z,99.90
2022-09-03T22:10:16.721Z,99.90
2022-09-03T22:13:28.412Z,99.90
2022-09-03T22:16:15.845Z,99.90
2022-09-03T22:18:44.202Z,99.90
2022-09-03T22:21:41.111Z,99.90
2022-09-03T22:24:23.531Z,99.90
2022-09-03T22:27:20.376Z,99.90
2022-09-03T22:29:54.911Z,99.90
2022-09-03T22:32:35.594Z,99.90
2022-09-03T22:35:15.536Z,99.90
2022-09-03T22:37:57.055Z,99.90
2022-09-03T22:40:59.527Z,99.90
2022-09-03T22:43:35.764Z,99.90
2022-09-03T22:46:22.735Z,99.90
2022-09-03T22:49:26.313Z,99.90
2022-09-03T22:51:59.442Z,99.90
2022-09-03T22:55:08.272Z,99.90
2022-09-03T22:57:49.743Z,99.90
2022-09-03T23:00:17.751Z,99.90
2022-09-03T23:02:50.138Z,99.90
2022-09-03T23:05:34.724Z,99.90
2022-09-03T23:08:28.833Z,99.90
2022-09-03T23:11:05.805Z,99.90
2022-09-03T23:13:45.452Z,99.90
2022-09-03T23:16:30.739Z,99.90
2022-09-03T23:19:01.698Z,99.90
2022-09-03T23:21:41.033Z,99.90
2022-09-03T23:24:27.065Z,99.90
2022-09-03T23:26:54.976Z,99.90
2022-09-03T23:29:26.248Z,99.90
2022-09-03T23:31:57.284Z,99.90
2022-09-03T23:34:25.805Z,99.90
2022-09-03T23:37:32.972Z,99.90
2022-09-03T23:40:22.216Z,99.90
2022-09-03T23:43:06.049Z,99.90
2022-09-03T23:45:42.218Z,99.90
2022-09-03T23:48:38.839Z,99.90
2022-09-03T23:51:33.106Z,99.90
2022-09-03T23:54:18.998Z,99.90
2022-09-03T23:57:02.319Z,99.90
2022-09-03T23:59:59.440Z,99.90
